CPX235 Details

Departure: Phoenix Sky Harbor International Airport (KPHX)
Arrival: Miami International Airport (KMIA)
Route: ECLPS1 PHASE ELP FST J86 LEV Y290 BLVNS Y290 BAGGS SSCOT5


Current Weather Information
KPHX 250151Z 02009G19KT 10SM FEW008 29/M03 A2978 RMK AO2 SLP068 FU VC NW FEW008 T02891033
KMIA 250153Z 05009KT 10SM FEW040 26/18 A3008 RMK AO2 SLP186 T02610183